Latest Coastal Weather Observations for Cooktown

IDQ60701

Issued at 3:13 pm EST Monday 20 May 2024 (issued every 10 minutes, with the page automatically refreshed every 10 minutes)

About coastal observations | Map of coastal stations | Coastal observations for QLD | Marine services | Other Formats
Station Details ID: 031209 Name: COOKTOWN AIRPORT Lat: -15.45 Lon: 145.19 Height: 4.8 m
Data from the previous 72 hours. | See also: Recent months at Cooktown
Date/Time
EST
Wind Sea
Height
m
Swell Vis
km
Cloud Weather Temp
°C
Press
MSL
hPa
Rain since
9am
mm
Dir  Spd
kts
Gust
kts
Height
m
Period
s
Dir
20/01:00pm SE 12 21 - - - - 10 Partly cloudy - 25.2 1014.3 0.0
20/12:30pm SSE 12 19 - - - - 10 Partly cloudy - 25.0 1014.6 0.0
20/12:00pm ESE 15 22 - - - - 10 Mostly clear - 25.4 1014.9 0.0
20/11:30am SE 13 22 - - - - 10 - - 25.3 1015.3 0.0
20/11:00am ESE 15 23 - - - - 10 - - 25.5 1015.3 0.0
20/10:31am ESE 16 26 - - - - 10 - - 25.4 1015.5 0.0
20/10:30am ESE 17 26 - - - - 10 - - 25.4 1015.6 0.0
20/10:22am ESE 16 26 - - - - 10 - - 25.3 1015.6 0.0
20/10:00am ESE 12 18 - - - - 10 - - 24.8 1015.5 0.0
20/09:30am SE 11 21 - - - - 10 - - 24.0 1015.6 0.0
20/09:04am SE 15 26 - - - - 10 - - 24.0 1015.5 0.0
20/09:00am ESE 13 22 - - - - 10 Mostly cloudy - 23.9 1015.6 0.0
20/08:30am SE 11 18 - - - - 10 - - 23.7 1015.6 0.0
20/08:00am SE 13 23 - - - - 10 - - 23.6 1015.0 0.0
20/07:30am SE 14 22 - - - - 10 Partly cloudy - 23.5 1014.7 0.0
20/07:00am ESE 14 21 - - - - 10 Partly cloudy - 23.5 1014.5 0.0
20/06:30am ESE 16 24 - - - - 10 Partly cloudy - 23.7 1014.3 0.0
20/06:00am ESE 13 24 - - - - 10 Cloudy - 23.5 1013.8 0.0
20/05:30am ESE 14 21 - - - - 10 - - 23.5 1013.4 0.0
20/05:00am ESE 13 20 - - - - 10 Partly cloudy - 23.4 1013.6 0.0
20/04:30am ESE 13 20 - - - - 10 Partly cloudy - 23.7 1013.7 0.0
20/04:00am SE 13 21 - - - - 10 Partly cloudy - 23.6 1013.6 0.0
20/03:30am ESE 12 18 - - - - 10 Partly cloudy - 23.5 1013.7 0.0
20/03:00am ESE 11 18 - - - - 10 Mostly cloudy - 23.2 1013.8 0.0
20/02:30am ESE 13 20 - - - - 10 Partly cloudy - 23.4 1013.8 0.0
20/02:00am ESE 13 22 - - - - 10 Partly cloudy - 23.4 1014.2 0.0
20/01:30am SE 12 20 - - - - 10 Partly cloudy - 23.5 1014.3 0.0
20/01:00am ESE 13 22 - - - - 10 Partly cloudy - 23.5 1014.8 0.0
20/12:30am ESE 13 21 - - - - 10 Partly cloudy - 23.7 1014.9 0.0
20/12:00am ESE 11 17 - - - - 10 - - 23.4 1015.1 0.0
 
Date/Time
EST
Wind Sea
Height
m
Swell Vis
km
Cloud Weather Temp
°C
Press
MSL
hPa
Rain since
9am
mm
Dir  Spd
kts
Gust
kts
Height
m
Period
s
Dir
19/11:30pm ESE 11 18 - - - - 10 Partly cloudy - 23.6 1015.2 0.0
19/11:00pm SE 10 18 - - - - 10 Partly cloudy - 23.7 1015.2 0.0
19/10:30pm SE 11 17 - - - - 10 Partly cloudy - 23.8 1015.0 0.0
19/10:00pm SE 9 17 - - - - 10 Partly cloudy - 23.6 1015.1 0.0
19/09:30pm SE 11 17 - - - - 10 Partly cloudy - 23.5 1015.2 0.0
19/09:00pm SE 9 16 - - - - 10 - - 23.4 1014.8 0.0
19/08:30pm SE 9 17 - - - - 10 - - 23.3 1014.4 0.0
19/08:00pm SSE 10 17 - - - - 10 - - 23.4 1014.2 0.0
19/07:30pm SE 10 17 - - - - 10 - - 23.5 1013.9 0.0
19/07:00pm SE 10 15 - - - - 10 - - 23.5 1013.6 0.0
19/06:30pm SE 10 16 - - - - 10 - - 23.6 1013.2 0.0
19/06:00pm SE 10 16 - - - - 10 - - 23.7 1013.1 0.0
19/05:30pm SE 10 16 - - - - 10 - - 24.1 1012.8 0.0
19/05:00pm SE 12 20 - - - - 10 - - 24.6 1012.3 0.0
19/04:30pm SE 13 19 - - - - 10 - - 25.2 1011.9 0.0
19/04:00pm SE 14 23 - - - - 10 Partly cloudy - 25.5 1011.7 0.0
19/03:30pm SE 13 22 - - - - 10 Partly cloudy - 25.8 1011.6 0.0
19/03:00pm SE 14 24 - - - - 10 Cloudy - 26.1 1011.6 0.0
19/02:30pm SE 16 27 - - - - 10 Partly cloudy - 26.4 1011.6 0.0
19/02:16pm SE 15 25 - - - - 10 Partly cloudy - 26.5 1011.7 0.0
19/02:00pm SE 14 22 - - - - 10 Partly cloudy - 26.7 1011.8 0.0
19/01:38pm SE 16 26 - - - - 10 Partly cloudy - 26.7 1012.2 0.0
19/01:30pm SE 15 24 - - - - 10 - - 26.8 1012.3 0.0
19/01:08pm SE 15 25 - - - - 10 Partly cloudy - 26.8 1012.6 0.0
19/01:00pm SE 15 23 - - - - 10 Partly cloudy - 26.7 1012.7 0.0
19/12:39pm SE 15 25 - - - - 10 Partly cloudy - 26.9 1012.8 0.0
19/12:30pm SE 15 24 - - - - 10 Partly cloudy - 26.7 1012.8 0.0
19/12:00pm SE 14 23 - - - - 10 Mostly clear - 26.7 1013.1 0.0
19/11:41am SE 15 25 - - - - 10 - - 26.8 1013.3 0.0
19/11:30am ESE 15 23 - - - - 10 Partly cloudy - 26.5 1013.5 0.0
19/11:00am SE 14 22 - - - - 10 Partly cloudy - 26.0 1013.7 0.0
19/10:53am SE 15 25 - - - - 10 Partly cloudy - 26.1 1013.8 0.0
19/10:30am SE 12 18 - - - - 10 Partly cloudy - 25.9 1014.1 0.0
19/10:00am SE 11 17 - - - - 10 Partly cloudy - 25.6 1014.1 0.0
19/09:30am ESE 12 21 - - - - 10 Partly cloudy - 25.0 1014.0 0.0
19/09:00am SE 11 19 - - - - 10 Mostly clear - 25.1 1013.7 0.0
19/08:30am SE 11 18 - - - - 10 - - 24.5 1013.3 0.0
19/08:00am SE 9 15 - - - - 10 - - 24.6 1012.9 0.0
19/07:30am SE 10 16 - - - - 10 - - 23.9 1012.8 0.0
19/07:00am SE 9 15 - - - - 10 - - 23.1 1012.3 0.0
19/06:30am SE 8 14 - - - - 10 Partly cloudy - 23.2 1012.2 0.0
19/06:00am SE 8 12 - - - - 10 Mostly clear - 23.0 1012.0 0.0
19/05:30am SE 8 13 - - - - 10 - - 22.9 1011.7 0.0
19/05:00am SE 7 10 - - - - 10 - - 22.8 1011.8 0.0
19/04:30am SE 8 12 - - - - 10 - - 23.0 1011.8 0.0
19/04:00am SE 8 12 - - - - 10 - - 23.0 1011.6 0.0
19/03:30am SE 7 11 - - - - 10 - - 22.8 1011.7 0.0
19/03:00am SE 8 10 - - - - 10 - - 22.9 1011.8 0.0
19/02:30am SE 7 11 - - - - 10 - - 23.0 1012.1 0.0
19/02:00am SE 7 11 - - - - 10 - - 22.8 1012.5 0.0
19/01:30am SE 7 10 - - - - 10 - - 23.0 1012.5 0.0
19/01:00am SE 6 9 - - - - 10 - - 22.7 1012.8 0.0
19/12:30am SE 6 9 - - - - 10 - - 22.8 1013.1 0.0
19/12:00am SE 6 9 - - - - 10 - - 23.0 1013.1 0.0
 
Date/Time
EST
Wind Sea
Height
m
Swell Vis
km
Cloud Weather Temp
°C
Press
MSL
hPa
Rain since
9am
mm
Dir  Spd
kts
Gust
kts
Height
m
Period
s
Dir
18/11:30pm SE 7 11 - - - - 10 Partly cloudy - 23.3 1013.3 0.0
18/11:00pm SE 8 12 - - - - 10 - - 23.6 1013.6 0.0
18/10:30pm SE 10 16 - - - - 10 - - 23.8 1013.8 0.0
18/10:00pm SE 10 17 - - - - 10 Partly cloudy - 24.1 1013.8 0.0
18/09:30pm SE 9 15 - - - - 10 Partly cloudy - 24.0 1014.1 0.0
18/09:00pm ESE 8 13 - - - - 10 Partly cloudy - 23.8 1014.2 0.0
18/08:30pm ESE 10 15 - - - - 10 Partly cloudy - 23.6 1014.2 0.0
18/08:00pm SE 9 15 - - - - 10 Partly cloudy - 23.9 1013.8 0.0
18/07:30pm SE 9 15 - - - - 10 Partly cloudy - 24.1 1013.6 0.0
18/07:00pm SE 8 15 - - - - 10 Cloudy - 24.1 1013.3 0.0
18/06:30pm SE 7 12 - - - - 10 Partly cloudy - 24.2 1013.2 0.0
18/06:00pm SE 11 19 - - - - 10 Mostly cloudy - 24.6 1012.7 0.0
18/05:30pm SE 11 18 - - - - 10 Partly cloudy - 24.6 1012.4 0.0
18/05:00pm SE 12 19 - - - - 10 Cloudy - 25.0 1012.3 0.0
18/04:30pm SE 12 20 - - - - 10 Partly cloudy - 25.3 1012.1 0.0
18/04:00pm SE 13 21 - - - - 10 Partly cloudy - 25.6 1011.9 0.0
18/03:30pm SE 13 19 - - - - 10 Partly cloudy - 26.3 1011.8 0.0
18/03:00pm SE 15 25 - - - - 10 Cloudy - 26.4 1011.9 0.0
18/02:49pm SE 15 25 - - - - 10 Partly cloudy - 27.1 1012.0 0.0
18/02:30pm SE 13 24 - - - - 10 Partly cloudy - 26.7 1012.1 0.0
18/02:00pm SE 12 24 - - - - 10 Cloudy - 26.4 1012.2 0.0
18/01:30pm SE 14 24 - - - - 10 Partly cloudy - 26.4 1012.6 0.0
18/01:01pm SE 15 25 - - - - 10 Partly cloudy - 26.6 1012.9 0.0
18/01:00pm SE 14 22 - - - - 10 Partly cloudy - 26.7 1012.9 0.0
18/12:44pm SE 16 26 - - - - 10 Partly cloudy - 26.9 1013.0 0.0
18/12:30pm SE 15 22 - - - - 10 Partly cloudy - 27.0 1013.2 0.0
18/12:20pm SE 15 25 - - - - 10 Partly cloudy - 26.9 1013.4 0.0
18/12:00pm SE 13 23 - - - - 10 Cloudy - 26.5 1013.6 0.0
18/11:30am SE 12 24 - - - - 10 Partly cloudy - 26.5 1013.9 0.0
18/11:00am ESE 14 20 - - - - 10 Partly cloudy - 27.0 1014.2 0.0
18/10:30am SE 13 23 - - - - 10 Partly cloudy - 26.2 1014.4 0.0
18/10:00am SE 15 25 - - - - 10 Partly cloudy - 26.7 1014.4 0.0
18/09:58am SE 15 25 - - - - 10 Partly cloudy - 26.7 1014.4 0.0
18/09:30am SE 14 23 - - - - 10 - - 26.5 1014.4 0.0
18/09:00am SE 14 23 - - - - 10 - - 25.7 1014.5 0.0
18/08:30am ESE 14 20 - - - - 10 - - 26.4 1014.1 0.0
18/08:00am SE 11 18 - - - - 10 Partly cloudy - 25.9 1013.9 0.0
18/07:30am SE 11 17 - - - - 10 Partly cloudy - 25.5 1013.7 0.0
18/07:00am SE 11 17 - - - - 10 Partly cloudy - 25.0 1013.5 0.0
18/06:30am SE 11 17 - - - - 10 Partly cloudy - 25.0 1013.1 0.0
18/06:00am SE 11 17 - - - - 10 Mostly cloudy - 24.8 1012.6 0.0
18/05:30am SE 9 16 - - - - 10 Partly cloudy - 24.1 1012.5 0.0
18/05:00am SE 9 15 - - - - 10 Partly cloudy - 23.7 1012.4 0.0
18/04:30am SE 11 16 - - - - 10 Partly cloudy - 23.8 1012.5 0.0
18/04:00am SE 10 16 - - - - 10 Partly cloudy - 23.5 1012.4 0.0
18/03:30am SE 9 13 - - - - 10 Partly cloudy - 23.6 1012.4 0.0
18/03:00am SE 9 14 - - - - 10 Cloudy - 23.8 1012.5 0.0
18/02:30am SE 8 14 - - - - 10 Partly cloudy - 23.6 1012.9 0.0
18/02:00am SE 9 16 - - - - 10 Partly cloudy - 23.6 1013.0 0.0
18/01:30am SE 8 13 - - - - 10 Partly cloudy - 23.4 1013.2 0.0
18/01:00am SE 10 14 - - - - 10 Partly cloudy - 23.2 1013.7 0.0
18/12:30am SSE 8 12 - - - - 10 Partly cloudy - 22.9 1014.0 0.0
18/12:15am SE 12 19 - - - - 10 Partly cloudy - 23.0 1014.1 0.0
18/12:02am SE 11 16 - - - - 5 Partly cloudy - 23.4 1014.3 0.0
18/12:00am SE 11 17 - - - - 6 Cloudy - 23.6 1014.3 0.0
 
Date/Time
EST
Wind Sea
Height
m
Swell Vis
km
Cloud Weather Temp
°C
Press
MSL
hPa
Rain since
9am
mm
Dir  Spd
kts
Gust
kts
Height
m
Period
s
Dir
17/11:30pm SE 10 17 - - - - 10 Partly cloudy - 24.0 1014.4 0.0
17/11:00pm SSE 9 15 - - - - 10 Partly cloudy - 23.3 1014.7 0.0
17/10:37pm SSE 9 14 - - - - 10 Partly cloudy - 22.9 1014.8 0.0
17/10:30pm SSE 11 19 - - - - 9 Partly cloudy - 23.0 1014.9 0.0
17/10:23pm SSE 12 19 - - - - 5 Partly cloudy - 23.3 1015.0 0.0
17/10:00pm SE 10 15 - - - - 10 Partly cloudy - 24.2 1015.0 0.0
17/09:30pm SE 10 15 - - - - 10 Partly cloudy - 24.0 1015.0 0.0
17/09:00pm SE 11 16 - - - - 10 Cloudy - 24.5 1014.9 0.0
17/08:30pm SE 11 18 - - - - 10 Partly cloudy - 24.5 1014.9 0.0
17/08:00pm SE 9 17 - - - - 10 Partly cloudy - 24.7 1014.6 0.0
17/07:30pm SE 11 17 - - - - 10 Partly cloudy - 24.9 1014.4 0.0
17/07:00pm SE 11 17 - - - - 10 Partly cloudy - 24.9 1013.9 0.0
17/06:30pm SE 11 17 - - - - 10 Partly cloudy - 25.0 1013.6 0.0
17/06:00pm SE 9 13 - - - - 10 Partly cloudy - 25.0 1013.2 0.0
17/05:30pm SE 11 16 - - - - 10 Partly cloudy - 25.4 1012.9 0.0
17/05:00pm SE 12 21 - - - - 10 Partly cloudy - 26.0 1012.7 0.0
17/04:30pm SE 12 19 - - - - 10 Partly cloudy - 26.2 1012.7 0.0
17/04:00pm SE 14 23 - - - - 10 Partly cloudy - 25.8 1012.8 0.0
17/03:30pm SE 11 18 - - - - 10 Partly cloudy - 26.7 1012.8 0.0

Other formats

Comma delimited format used in spreadsheet applications
http://www.bom.gov.au/fwo/IDQ60701/IDQ60701.95283.axf

JavaScript Object Notation format (JSON) in row-major order
http://www.bom.gov.au/fwo/IDQ60701/IDQ60701.95283.json

Data quality

Most of these data are generated automatically and are frequently updated. Quality checks on data are not normally performed. It is possible for incorrect values to appear. Refer to information at About Latest Weather Observations and please check the disclaimer before using these data.